Time;durP1;ratioP1;P1;durP2;ratioP2;P2;SDS_P1;SDS_P2;PMS_P1;PMS_P2;Temp;Humidity;BMP_temperature;BMP_pressure;BME280_temperature;BME280_humidity;BME280_pressure;Samples;Min_cycle;Max_cycle;Signal;HPM_P1;HPM_P2
2021/03/21 00:04:54;;;;;;;9.77;6.43;;;;;;;-0.27;100.00;94585.13;10455428;28;20036;-78
2021/03/21 00:09:55;;;;;;;9.20;6.83;;;;;;;-0.24;100.00;94595.28;10455696;28;20043;-78
2021/03/21 00:14:55;;;;;;;9.70;7.67;;;;;;;-0.16;100.00;94588.97;10455813;28;20412;-78
2021/03/21 00:19:55;;;;;;;9.23;5.23;;;;;;;-0.21;100.00;94573.72;10455031;28;20024;-78
2021/03/21 00:24:56;;;;;;;11.47;5.93;;;;;;;-0.24;100.00;94596.09;10453917;28;20057;-78
2021/03/21 00:29:56;;;;;;;9.07;4.97;;;;;;;-0.12;100.00;94582.25;10452110;28;20028;-78
2021/03/21 00:34:56;;;;;;;9.37;5.40;;;;;;;-0.15;100.00;94572.91;10445609;28;20048;-77
2021/03/21 00:39:57;;;;;;;4.37;3.40;;;;;;;-0.15;100.00;94543.84;10443357;28;20313;-78
2021/03/21 00:44:57;;;;;;;6.40;4.83;;;;;;;-0.31;100.00;94545.13;10444864;28;20631;-77
2021/03/21 00:49:57;;;;;;;9.10;6.17;;;;;;;-0.31;100.00;94545.13;10446101;28;20025;-76
2021/03/21 00:54:58;;;;;;;7.90;5.25;;;;;;;-0.32;100.00;94562.00;10444815;28;20033;-77
2021/03/21 00:59:58;;;;;;;5.03;4.17;;;;;;;-0.32;100.00;94563.81;10445047;28;20013;-76
2021/03/21 01:04:58;;;;;;;3.33;2.93;;;;;;;-0.29;100.00;94564.22;10445589;28;20282;-77
2021/03/21 01:09:59;;;;;;;11.43;3.27;;;;;;;-0.32;100.00;94532.97;10443998;28;20971;-77
2021/03/21 01:14:59;;;;;;;4.88;3.70;;;;;;;-0.31;100.00;94555.69;10443635;28;20294;-77
2021/03/21 01:20:00;;;;;;;4.00;3.50;;;;;;;-0.29;100.00;94556.31;10445947;28;20029;-77
2021/03/21 01:25:00;;;;;;;3.17;2.87;;;;;;;-0.29;100.00;94521.97;10445119;28;20033;-77
2021/03/21 01:30:01;;;;;;;3.40;2.67;;;;;;;-0.35;100.00;94531.56;10444989;28;20342;-77
2021/03/21 01:35:02;;;;;;;5.88;3.08;;;;;;;-0.40;100.00;94547.19;10446127;28;20475;-77
2021/03/21 01:40:04;;;;;;;3.97;2.75;;;;;;;-0.26;100.00;94560.38;10446055;28;20025;-77
2021/03/21 01:45:28;;;;;;;4.90;3.17;;;;;;;-0.19;100.00;94556.66;10445406;28;20025;-77
2021/03/21 01:50:44;;;;;;;3.17;2.42;;;;;;;-0.20;100.00;94544.47;10445558;28;20530;-77
2021/03/21 01:55:45;;;;;;;4.70;3.17;;;;;;;-0.30;100.00;94523.00;10444642;28;20064;-77
2021/03/21 02:00:46;;;;;;;5.10;3.17;;;;;;;-0.35;100.00;94517.53;10444095;28;20041;-77
2021/03/21 02:05:53;;;;;;;4.40;1.85;;;;;;;-0.38;100.00;94510.84;10443746;28;20404;-77
2021/03/21 02:11:06;;;;;;;4.53;2.25;;;;;;;-0.44;100.00;94516.16;10440500;28;20033;-77
2021/03/21 02:16:15;;;;;;;1.75;1.50;;;;;;;-0.44;100.00;94526.72;10442683;28;20048;-77
2021/03/21 02:21:38;;;;;;;2.50;2.25;;;;;;;-0.54;100.00;94527.97;10443986;28;20029;-76
2021/03/21 02:27:04;;;;;;;2.22;1.98;;;;;;;-0.53;100.00;94518.19;10436537;28;20056;-77
2021/03/21 02:32:09;;;;;;;1.52;1.10;;;;;;;-0.53;100.00;94513.75;10444979;28;20029;-77
2021/03/21 02:37:48;;;;;;;1.52;1.40;;;;;;;-0.58;100.00;94521.47;10443346;28;20531;-77
2021/03/21 02:42:57;;;;;;;2.95;1.58;;;;;;;-0.61;100.00;94539.56;10443052;28;20128;-77
2021/03/21 02:48:12;;;;;;;1.40;1.27;;;;;;;-0.60;100.00;94530.63;10444362;28;20873;-77
2021/03/21 02:53:19;;;;;;;3.13;2.40;;;;;;;-0.59;100.00;94530.41;10452588;28;20060;-77
2021/03/21 02:58:28;;;;;;;2.03;1.83;;;;;;;-0.65;100.00;94530.44;10452219;28;20028;-77
2021/03/21 03:03:31;;;;;;;3.03;2.83;;;;;;;-0.67;100.00;94508.72;10451931;28;20832;-77
2021/03/21 03:08:46;;;;;;;3.13;2.38;;;;;;;-0.71;100.00;94514.44;10452187;28;20040;-77
2021/03/21 03:14:17;;;;;;;2.72;2.45;;;;;;;-0.74;100.00;94514.00;10451663;28;20056;-77
2021/03/21 03:19:46;;;;;;;2.97;2.67;;;;;;;-0.77;100.00;94527.63;10451552;28;20114;-76
2021/03/21 03:25:01;;;;;;;3.53;2.72;;;;;;;-0.73;100.00;94513.81;10450968;28;20155;-77
2021/03/21 03:30:17;;;;;;;3.95;3.15;;;;;;;-0.74;100.00;94498.19;10450390;28;20025;-77
2021/03/21 03:35:21;;;;;;;3.28;2.42;;;;;;;-0.74;100.00;94512.22;10449302;28;20255;-77
2021/03/21 03:40:23;;;;;;;5.10;3.50;;;;;;;-0.78;100.00;94513.63;10450360;28;20029;-77
2021/03/21 03:45:26;;;;;;;4.10;3.00;;;;;;;-0.74;100.00;94522.75;10448304;28;20139;-76
2021/03/21 03:50:42;;;;;;;4.43;3.22;;;;;;;-0.77;100.00;94517.88;10452154;28;20507;-77
2021/03/21 03:55:45;;;;;;;3.40;2.78;;;;;;;-0.82;100.00;94530.06;10452138;28;20443;-77
2021/03/21 04:00:57;;;;;;;4.82;2.97;;;;;;;-0.81;100.00;94534.34;10451014;28;20024;-77
2021/03/21 04:06:06;;;;;;;3.25;2.78;;;;;;;-0.70;100.00;94528.41;10448438;28;20029;-76
2021/03/21 04:11:17;;;;;;;17.20;4.43;;;;;;;-0.70;100.00;94521.34;10446822;28;20028;-76
2021/03/21 04:16:23;;;;;;;3.53;3.22;;;;;;;-0.64;100.00;94506.50;10448321;28;20111;-77
2021/03/21 04:21:31;;;;;;;3.80;3.08;;;;;;;-0.74;100.00;94511.38;10454170;28;20517;-77
2021/03/21 04:26:39;;;;;;;3.90;3.60;;;;;;;-0.73;100.00;94518.28;10453467;28;20021;-77
2021/03/21 04:31:41;;;;;;;3.63;2.90;;;;;;;-0.72;100.00;94526.00;10452987;28;20098;-77
2021/03/21 04:36:45;;;;;;;3.55;3.25;;;;;;;-0.76;100.00;94524.78;10450437;28;20115;-77
2021/03/21 04:41:49;;;;;;;4.13;3.40;;;;;;;-0.78;100.00;94521.56;10449161;28;20021;-77
2021/03/21 04:47:06;;;;;;;4.97;4.47;;;;;;;-0.76;100.00;94522.16;10450729;28;20032;-78
2021/03/21 04:52:15;;;;;;;4.95;4.45;;;;;;;-0.80;100.00;94533.34;10474241;28;20048;-78
2021/03/21 04:57:21;;;;;;;5.85;3.85;;;;;;;-0.77;100.00;94527.63;10473429;28;20082;-77
2021/03/21 05:02:28;;;;;;;5.55;3.92;;;;;;;-0.82;100.00;94515.06;10451296;28;20033;-77
2021/03/21 05:07:43;;;;;;;5.53;4.60;;;;;;;-0.78;100.00;94531.28;10448247;28;20025;-76
2021/03/21 05:13:07;;;;;;;7.00;3.97;;;;;;;-0.82;100.00;94516.88;10479878;28;20565;-76
2021/03/21 05:18:29;;;;;;;7.07;4.90;;;;;;;-0.76;100.00;94503.69;10448555;28;20029;-76
2021/03/21 05:24:03;;;;;;;5.97;4.45;;;;;;;-0.71;100.00;94487.25;10448641;28;20116;-77
2021/03/21 05:29:18;;;;;;;6.68;4.80;;;;;;;-0.72;100.00;94494.31;10447331;28;20060;-77
2021/03/21 05:34:19;;;;;;;7.43;5.15;;;;;;;-0.71;100.00;94495.16;10449641;28;20032;-77
2021/03/21 05:39:29;;;;;;;7.38;5.00;;;;;;;-0.71;100.00;94506.50;10450282;28;20040;-77
2021/03/21 05:44:41;;;;;;;7.60;5.15;;;;;;;-0.69;100.00;94514.22;10449557;28;20045;-77
2021/03/21 05:50:10;;;;;;;8.15;5.60;;;;;;;-0.66;100.00;94520.91;10441759;28;20028;-77
2021/03/21 05:55:30;;;;;;;8.90;4.77;;;;;;;-0.65;100.00;94528.63;10444487;28;20068;-75
2021/03/21 06:00:48;;;;;;;9.95;5.82;;;;;;;-0.56;100.00;94527.38;10441012;28;20032;-77
2021/03/21 06:06:21;;;;;;;11.63;5.90;;;;;;;-0.54;100.00;94527.97;10448041;28;20033;-77
2021/03/21 06:11:32;;;;;;;14.88;6.95;;;;;;;-0.33;100.00;94518.13;10427717;28;20507;-78
2021/03/21 06:17:13;;;;;;;6.50;4.80;;;;;;;-0.41;100.00;94515.72;10457122;28;20391;-74
2021/03/21 06:22:38;;;;;;;7.53;5.50;;;;;;;-0.34;100.00;94527.06;10482849;28;20085;-73
2021/03/21 06:28:02;;;;;;;8.73;5.80;;;;;;;-0.29;100.00;94540.47;10463962;28;20377;-74
2021/03/21 06:33:11;;;;;;;6.68;5.55;;;;;;;-0.28;100.00;94544.72;10476052;28;20029;-74
2021/03/21 06:38:40;;;;;;;7.30;5.57;;;;;;;-0.09;100.00;94552.75;10444086;28;20086;-76
2021/03/21 06:43:42;;;;;;;5.97;5.15;;;;;;;-0.11;100.00;94545.06;10433644;28;20036;-76
2021/03/21 06:49:08;;;;;;;9.13;6.00;;;;;;;0.03;100.00;94543.16;10442479;28;20029;-75
2021/03/21 06:54:46;;;;;;;10.48;5.75;;;;;;;-0.09;100.00;94537.72;10440930;28;20187;-75
2021/03/21 07:00:14;;;;;;;9.25;5.63;;;;;;;-0.03;100.00;94536.06;10448921;28;20479;-75
2021/03/21 07:05:42;;;;;;;10.55;5.63;;;;;;;-0.02;100.00;94548.25;10475602;28;20031;-75
2021/03/21 07:11:31;;;;;;;8.37;4.97;;;;;;;0.01;100.00;94537.25;10468611;28;20514;-76
2021/03/21 07:17:02;;;;;;;8.50;4.80;;;;;;;-0.01;100.00;94537.47;10458686;28;20036;-76
2021/03/21 07:22:33;;;;;;;5.15;4.15;;;;;;;-0.05;100.00;94538.91;10455858;28;20291;-76
2021/03/21 07:28:04;;;;;;;4.10;3.70;;;;;;;-0.11;100.00;94531.00;10476309;28;20116;-76
2021/03/21 07:33:30;;;;;;;9.07;4.57;;;;;;;-0.11;100.00;94534.47;10463148;28;20051;-76
2021/03/21 07:38:51;;;;;;;5.05;4.25;;;;;;;-0.04;100.00;94537.91;10448842;28;20867;-75
2021/03/21 07:44:06;;;;;;;6.45;3.92;;;;;;;0.02;100.00;94530.94;10447997;28;20040;-75
2021/03/21 07:49:12;;;;;;;6.35;5.18;;;;;;;0.08;100.00;94527.44;10479369;28;20063;-76
2021/03/21 07:54:57;;;;;;;7.70;3.80;;;;;;;0.07;100.00;94533.78;10482489;28;20489;-77
2021/03/21 08:00:00;;;;;;;5.07;3.72;;;;;;;0.19;100.00;94520.69;10407608;28;20049;-73
2021/03/21 08:05:07;;;;;;;7.70;4.55;;;;;;;0.07;100.00;94532.94;10470790;28;20060;-72
2021/03/21 08:10:31;;;;;;;6.32;4.53;;;;;;;0.15;100.00;94519.47;10460716;28;20461;-72
2021/03/21 08:15:36;;;;;;;6.97;5.35;;;;;;;0.21;100.00;94523.09;10486616;28;20123;-72
2021/03/21 08:20:39;;;;;;;5.93;4.32;;;;;;;0.14;100.00;94497.53;10487230;28;20542;-73
2021/03/21 08:25:40;;;;;;;7.55;4.40;;;;;;;0.14;100.00;94489.63;10487694;28;20028;-72
2021/03/21 08:30:53;;;;;;;6.07;4.63;;;;;;;0.38;100.00;94496.94;10453231;28;20403;-72
2021/03/21 08:36:05;;;;;;;9.93;5.70;;;;;;;0.50;100.00;94493.41;10445544;28;20057;-72
2021/03/21 08:41:08;;;;;;;10.10;6.70;;;;;;;0.60;100.00;94478.88;10445895;28;20033;-72
2021/03/21 08:46:16;;;;;;;19.58;11.27;;;;;;;0.60;100.00;94473.59;10452717;28;20032;-73
2021/03/21 08:51:16;;;;;;;15.73;8.57;;;;;;;0.53;100.00;94467.56;10486644;28;20053;-73
2021/03/21 08:56:18;;;;;;;12.25;8.30;;;;;;;0.59;100.00;94454.28;10485277;28;20032;-73
2021/03/21 09:01:24;;;;;;;12.20;8.75;;;;;;;0.87;100.00;94454.84;10485934;28;20097;-73
2021/03/21 09:06:31;;;;;;;13.63;8.13;;;;;;;0.92;100.00;94441.75;10484509;28;20020;-73
2021/03/21 09:11:34;;;;;;;13.23;8.33;;;;;;;1.03;100.00;94441.00;10486172;28;20044;-73
2021/03/21 09:16:52;;;;;;;14.38;6.35;;;;;;;1.29;100.00;94426.66;10484698;28;20839;-72
2021/03/21 09:21:53;;;;;;;9.87;5.37;;;;;;;1.61;100.00;94428.31;10485120;28;20033;-73
2021/03/21 09:27:14;;;;;;;10.00;6.13;;;;;;;1.66;100.00;94417.81;10485020;28;20043;-73
2021/03/21 09:32:24;;;;;;;8.88;5.28;;;;;;;1.93;100.00;94402.38;10486477;28;20445;-73
2021/03/21 09:37:28;;;;;;;9.32;4.78;;;;;;;1.94;100.00;94404.00;10484229;28;20116;-73
2021/03/21 09:42:30;;;;;;;8.50;4.72;;;;;;;2.06;100.00;94409.31;10464226;28;20111;-73
2021/03/21 09:48:01;;;;;;;6.30;3.38;;;;;;;1.80;100.00;94418.44;10443411;28;20119;-73
2021/03/21 09:53:20;;;;;;;6.28;3.53;;;;;;;1.84;100.00;94427.56;10441537;28;20057;-73
2021/03/21 09:58:46;;;;;;;6.18;3.30;;;;;;;1.93;100.00;94418.28;10452334;28;20052;-72
2021/03/21 10:03:54;;;;;;;3.38;2.58;;;;;;;1.66;100.00;94415.19;10482055;28;20028;-73
2021/03/21 10:09:01;;;;;;;;;;;;;;;1.37;100.00;94409.69;10484164;28;20020;-73
2021/03/21 10:14:21;;;;;;;5.28;2.33;;;;;;;1.23;100.00;94405.56;10482571;28;19916;-74
2021/03/21 10:19:47;;;;;;;6.38;2.92;;;;;;;1.29;100.00;94394.09;10479557;28;20043;-72
2021/03/21 10:24:50;;;;;;;4.57;2.65;;;;;;;1.30;100.00;94391.22;10482610;28;20028;-73
2021/03/21 10:30:08;;;;;;;5.82;3.22;;;;;;;1.41;100.00;94391.47;10483256;28;20025;-73
2021/03/21 10:35:34;;;;;;;3.22;2.55;;;;;;;1.47;100.00;94391.41;10484025;28;20024;-74
2021/03/21 10:40:34;;;;;;;6.15;2.65;;;;;;;1.51;100.00;94389.91;10482698;28;20025;-72
2021/03/21 10:45:34;;;;;;;4.97;2.50;;;;;;;1.72;100.00;94379.84;10448972;28;20480;-72
2021/03/21 10:51:00;;;;;;;5.07;1.98;;;;;;;1.96;100.00;94366.66;10441924;28;20674;-72
2021/03/21 10:56:09;;;;;;;1.95;1.55;;;;;;;1.72;100.00;94358.66;10440793;28;20049;-72
2021/03/21 11:06:21;;;;;;;3.42;2.47;;;;;;;1.23;100.00;94355.28;10482852;28;20093;-72
2021/03/21 11:11:34;;;;;;;4.35;2.97;;;;;;;1.09;100.00;94342.22;10484968;28;20032;-73
2021/03/21 11:16:35;;;;;;;4.07;2.83;;;;;;;1.39;100.00;94338.75;10489489;28;20039;-72
2021/03/21 11:21:38;;;;;;;7.17;3.47;;;;;;;1.90;100.00;94333.09;10489162;28;20036;-72
2021/03/21 11:26:38;;;;;;;7.55;2.95;;;;;;;1.77;100.00;94332.28;10490578;28;20457;-73
2021/03/21 11:31:43;;;;;;;4.55;3.33;;;;;;;1.90;100.00;94322.50;10489284;28;20029;-73
2021/03/21 11:36:44;;;;;;;2.28;1.45;;;;;;;1.83;100.00;94323.44;10488964;28;20062;-72
2021/03/21 11:41:46;;;;;;;5.32;2.25;;;;;;;2.22;100.00;94299.94;10482085;28;20760;-74
2021/03/21 11:46:48;;;;;;;3.28;2.42;;;;;;;2.41;100.00;94302.44;10479372;28;20040;-73
2021/03/21 11:51:56;;;;;;;2.47;1.63;;;;;;;2.39;100.00;94285.97;10460863;28;20067;-73
2021/03/21 11:57:23;;;;;;;6.03;2.40;;;;;;;2.52;100.00;94285.72;10456218;28;20036;-73
2021/03/21 12:02:33;;;;;;;2.15;1.60;;;;;;;2.35;100.00;94277.66;10459481;28;20044;-72
2021/03/21 12:07:33;;;;;;;2.60;2.20;;;;;;;1.95;100.00;94266.97;10447023;28;20385;-74
2021/03/21 12:12:41;;;;;;;3.67;2.20;;;;;;;2.17;100.00;94259.25;10447177;28;20040;-73
2021/03/21 12:17:43;;;;;;;3.15;2.20;;;;;;;2.19;100.00;94262.47;10446817;28;20433;-73
2021/03/21 12:22:50;;;;;;;2.00;1.80;;;;;;;2.07;100.00;94238.63;10478709;28;20032;-73
2021/03/21 12:28:00;;;;;;;2.47;2.00;;;;;;;2.21;100.00;94237.34;10487492;28;20034;-72
2021/03/21 12:33:27;;;;;;;3.53;2.58;;;;;;;2.36;100.00;94215.66;10487025;28;20086;-73
2021/03/21 12:38:31;;;;;;;3.15;2.78;;;;;;;2.11;100.00;94200.03;10485400;28;20032;-73
2021/03/21 12:43:32;;;;;;;3.72;2.47;;;;;;;1.93;100.00;94205.47;10486766;28;20029;-73
2021/03/21 12:48:50;;;;;;;3.40;2.78;;;;;;;2.04;100.00;94191.41;10487265;28;20506;-72
2021/03/21 12:53:51;;;;;;;2.83;2.30;;;;;;;1.84;100.00;94197.88;10485214;28;20056;-72
2021/03/21 12:58:51;;;;;;;4.13;3.17;;;;;;;1.71;100.00;94183.00;10485527;28;20475;-73
2021/03/21 13:03:52;;;;;;;3.85;2.03;;;;;;;1.69;100.00;94181.66;10485006;28;20031;-72
2021/03/21 13:08:52;;;;;;;3.00;2.40;;;;;;;1.59;100.00;94168.97;10485162;28;20025;-72
2021/03/21 13:13:52;;;;;;;4.30;3.25;;;;;;;1.57;100.00;94170.25;10444031;28;20028;-74
2021/03/21 13:18:54;;;;;;;5.87;3.57;;;;;;;1.75;100.00;94151.56;10444703;28;20025;-73
2021/03/21 13:23:54;;;;;;;10.45;3.72;;;;;;;1.72;100.00;94141.44;10444016;28;20515;-73
2021/03/21 13:28:54;;;;;;;3.22;2.90;;;;;;;1.78;100.00;94135.19;10443483;28;20021;-73
2021/03/21 13:33:55;;;;;;;4.30;3.13;;;;;;;1.69;100.00;94133.97;10443182;28;20468;-73
2021/03/21 13:38:55;;;;;;;5.43;3.93;;;;;;;1.68;100.00;94122.53;10442744;28;20040;-74
2021/03/21 13:43:56;;;;;;;4.55;2.85;;;;;;;1.69;100.00;94132.09;10474804;28;20268;-74
2021/03/21 13:48:56;;;;;;;4.77;3.33;;;;;;;1.74;100.00;94128.75;10442873;28;20082;-72
2021/03/21 13:53:57;;;;;;;8.55;3.83;;;;;;;1.56;100.00;94119.09;10443053;28;20119;-73
2021/03/21 13:58:57;;;;;;;6.60;4.50;;;;;;;1.36;100.00;94107.03;10449122;28;20025;-74
2021/03/21 14:03:58;;;;;;;10.83;4.43;;;;;;;1.24;100.00;94111.50;10441800;28;20031;-74
2021/03/21 14:08:58;;;;;;;6.40;3.95;;;;;;;1.06;100.00;94107.16;10442749;28;20380;-77
2021/03/21 14:13:59;;;;;;;5.63;4.13;;;;;;;0.98;100.00;94108.28;10498002;28;20029;-77
2021/03/21 14:18:59;;;;;;;8.05;4.82;;;;;;;1.07;100.00;94098.16;10482246;28;20089;-77
2021/03/21 14:23:59;;;;;;;9.10;4.43;;;;;;;0.98;100.00;94099.56;10474636;28;20036;-77
2021/03/21 14:29:00;;;;;;;8.93;4.60;;;;;;;0.79;100.00;94089.06;10482691;28;20305;-77
2021/03/21 14:34:01;;;;;;;11.87;7.03;;;;;;;0.88;100.00;94083.44;10459930;28;20032;-77
2021/03/21 14:39:02;;;;;;;18.25;9.40;;;;;;;0.96;100.00;94096.31;10449901;28;20279;-77
2021/03/21 14:44:03;;;;;;;13.07;8.48;;;;;;;0.95;100.00;94074.38;10482228;28;20165;-77
2021/03/21 14:49:03;;;;;;;14.95;8.82;;;;;;;0.85;100.00;94076.75;10457964;28;20530;-73
2021/03/21 14:54:04;;;;;;;14.43;7.78;;;;;;;0.84;100.00;94060.09;10448933;28;20512;-73
2021/03/21 14:59:04;;;;;;;14.85;7.43;;;;;;;0.85;100.00;94052.94;10465278;28;20036;-73
2021/03/21 15:04:05;;;;;;;18.53;9.43;;;;;;;0.69;100.00;94049.16;10471836;28;20059;-73
2021/03/21 15:09:05;;;;;;;13.67;8.20;;;;;;;0.69;100.00;94038.56;10458394;28;20024;-73
2021/03/21 15:14:05;;;;;;;13.88;8.77;;;;;;;0.45;100.00;94049.13;10489457;28;20025;-73
2021/03/21 15:19:06;;;;;;;15.70;8.65;;;;;;;0.31;100.00;94048.50;10474139;28;20059;-73
2021/03/21 15:24:07;;;;;;;11.73;7.72;;;;;;;0.30;100.00;94038.16;10485490;28;20403;-73
2021/03/21 15:29:08;;;;;;;8.30;5.20;;;;;;;0.09;100.00;94050.84;10490024;28;20028;-72
2021/03/21 15:34:12;;;;;;;10.57;5.70;;;;;;;0.03;100.00;94043.00;10489897;28;20090;-76
2021/03/21 15:39:13;;;;;;;10.52;6.15;;;;;;;-0.13;100.00;94049.75;10488820;28;20032;-77
2021/03/21 15:44:14;;;;;;;8.55;5.90;;;;;;;-0.10;100.00;94047.44;10490162;28;20411;-77
2021/03/21 15:49:14;;;;;;;10.48;6.15;;;;;;;-0.20;100.00;94057.75;10489168;28;20024;-76
2021/03/21 15:54:15;;;;;;;8.88;6.28;;;;;;;-0.32;100.00;94057.69;10488890;28;20522;-77
2021/03/21 15:59:15;;;;;;;14.47;8.07;;;;;;;-0.32;100.00;94070.91;10475672;28;20480;-77
2021/03/21 16:04:15;;;;;;;14.97;8.97;;;;;;;-0.40;100.00;94068.56;10460466;28;20274;-77
2021/03/21 16:09:16;;;;;;;20.40;8.73;;;;;;;-0.38;100.00;94045.38;10465663;28;20404;-78
2021/03/21 16:14:16;;;;;;;16.00;8.27;;;;;;;-0.28;100.00;94050.13;10462751;28;20035;-76
2021/03/21 16:19:17;;;;;;;14.27;6.88;;;;;;;-0.27;100.00;94047.25;10449998;28;20275;-77
2021/03/21 16:24:18;;;;;;;16.08;7.25;;;;;;;-0.33;100.00;94023.59;10481664;28;20063;-77
2021/03/21 16:29:19;;;;;;;14.30;6.25;;;;;;;-0.26;100.00;94025.09;10453256;28;20473;-73
2021/03/21 16:34:20;;;;;;;10.60;5.80;;;;;;;-0.26;100.00;94040.94;10485173;28;20024;-74
2021/03/21 16:39:20;;;;;;;10.70;5.10;;;;;;;-0.33;100.00;94034.97;10488638;28;20033;-75
2021/03/21 16:44:21;;;;;;;11.00;7.28;;;;;;;-0.46;100.00;94012.19;10489216;28;20031;-74
2021/03/21 16:49:21;;;;;;;15.57;9.40;;;;;;;-0.49;100.00;94023.16;10488910;28;20702;-74
2021/03/21 16:54:21;;;;;;;17.43;9.40;;;;;;;-0.42;100.00;94025.72;10489822;28;20052;-74
2021/03/21 16:59:22;;;;;;;22.60;10.43;;;;;;;-0.41;100.00;94027.34;10469328;28;20030;-77
2021/03/21 17:04:26;;;;;;;35.73;15.33;;;;;;;-0.33;100.00;94036.81;10489138;28;20278;-78
2021/03/21 17:09:26;;;;;;;52.20;21.17;;;;;;;-0.23;100.00;94029.16;10457971;28;20541;-78
2021/03/21 17:14:27;;;;;;;64.67;28.17;;;;;;;-0.32;100.00;94027.81;10482015;28;20107;-79
2021/03/21 17:19:27;;;;;;;62.25;26.90;;;;;;;-0.24;100.00;94028.34;10487071;28;20024;-78
2021/03/21 17:24:28;;;;;;;58.92;24.38;;;;;;;-0.28;100.00;94018.44;10485859;28;20841;-76
2021/03/21 17:29:29;;;;;;;36.53;16.70;;;;;;;-0.28;100.00;94011.34;10489196;28;20024;-76
2021/03/21 17:34:30;;;;;;;25.88;14.02;;;;;;;-0.30;100.00;94000.19;10488699;28;20028;-76
2021/03/21 17:39:31;;;;;;;24.50;13.27;;;;;;;-0.32;100.00;93996.97;10489964;28;20407;-76
2021/03/21 17:44:33;;;;;;;23.13;11.93;;;;;;;-0.32;100.00;93986.41;10489872;28;20033;-79
2021/03/21 17:49:34;;;;;;;15.35;7.82;;;;;;;-0.27;100.00;93989.16;10483244;28;20017;-79
2021/03/21 17:54:35;;;;;;;18.48;9.40;;;;;;;-0.26;100.00;93988.16;10464934;28;20049;-78
2021/03/21 17:59:39;;;;;;;12.50;6.38;;;;;;;-0.21;100.00;93988.28;10472637;28;20559;-78
2021/03/21 18:04:41;;;;;;;9.20;5.60;;;;;;;-0.26;100.00;93990.78;10484132;28;20058;-78
2021/03/21 18:09:42;;;;;;;9.90;5.93;;;;;;;-0.20;100.00;93999.66;10480269;28;20020;-79
2021/03/21 18:14:43;;;;;;;10.35;6.25;;;;;;;-0.15;100.00;93980.47;10488232;28;20479;-78
2021/03/21 18:19:44;;;;;;;8.50;5.07;;;;;;;-0.16;100.00;93989.44;10457090;28;20017;-79
2021/03/21 18:24:48;;;;;;;9.90;5.82;;;;;;;-0.23;100.00;93995.63;10482690;28;20036;-79
2021/03/21 18:29:49;;;;;;;12.50;7.22;;;;;;;-0.14;100.00;93982.91;10479600;28;20017;-79
2021/03/21 18:34:51;;;;;;;16.02;9.07;;;;;;;-0.08;100.00;93975.94;10479516;28;20021;-77
2021/03/21 18:39:52;;;;;;;25.00;11.73;;;;;;;-0.07;100.00;93969.59;10468269;28;20411;-78
2021/03/21 18:44:57;;;;;;;19.35;11.98;;;;;;;-0.05;100.00;93959.63;10446888;28;20123;-77
2021/03/21 18:49:58;;;;;;;17.58;9.48;;;;;;;-0.01;100.00;93960.78;10486262;28;20027;-77
2021/03/21 18:55:00;;;;;;;14.73;8.02;;;;;;;-0.08;100.00;93947.66;10487651;28;20149;-77
2021/03/21 19:00:01;;;;;;;15.93;7.75;;;;;;;-0.11;100.00;93931.47;10472030;28;20365;-78
2021/03/21 19:05:02;;;;;;;16.80;7.07;;;;;;;-0.16;100.00;93948.00;10443449;28;20029;-78
2021/03/21 19:10:04;;;;;;;11.30;6.47;;;;;;;-0.21;100.00;93939.94;10465462;28;20021;-77
2021/03/21 19:15:07;;;;;;;13.88;6.55;;;;;;;-0.15;100.00;93932.94;10481386;28;20830;-77
2021/03/21 19:20:09;;;;;;;11.88;6.38;;;;;;;-0.21;100.00;93918.81;10487935;28;20545;-78
2021/03/21 19:25:15;;;;;;;13.13;7.63;;;;;;;-0.28;100.00;93916.28;10459331;28;20116;-78
2021/03/21 19:30:17;;;;;;;11.25;6.50;;;;;;;-0.24;100.00;93924.53;10448946;28;20031;-75
2021/03/21 19:35:23;;;;;;;16.25;9.73;;;;;;;-0.26;100.00;93914.22;10467952;28;20032;-76
2021/03/21 19:40:27;;;;;;;14.20;7.78;;;;;;;-0.28;100.00;93910.19;10495451;28;20031;-76
2021/03/21 19:45:32;;;;;;;15.85;6.97;;;;;;;-0.30;100.00;93902.50;10497102;28;20046;-76
2021/03/21 19:50:36;;;;;;;19.73;9.20;;;;;;;-0.35;100.00;93889.16;10496639;28;20044;-75
2021/03/21 19:55:38;;;;;;;19.52;8.95;;;;;;;-0.35;100.00;93876.78;10501994;28;20400;-76
2021/03/21 20:00:40;;;;;;;15.00;8.05;;;;;;;-0.26;100.00;93879.09;10494774;28;20033;-80
2021/03/21 20:05:42;;;;;;;14.02;7.90;;;;;;;-0.30;100.00;93881.38;10493271;28;20498;-77
2021/03/21 20:10:43;;;;;;;12.88;6.93;;;;;;;-0.23;100.00;93858.31;10492916;28;20047;-77
2021/03/21 20:15:45;;;;;;;14.35;6.97;;;;;;;-0.28;100.00;93854.75;10494857;28;20414;-77
2021/03/21 20:20:51;;;;;;;9.40;6.00;;;;;;;-0.41;100.00;93845.19;10479531;28;20025;-78
2021/03/21 20:25:54;;;;;;;11.43;4.88;;;;;;;-0.37;100.00;93833.16;10471616;28;20496;-78
2021/03/21 20:30:55;;;;;;;10.88;5.20;;;;;;;-0.39;100.00;93833.38;10452530;28;20036;-77
2021/03/21 20:35:58;;;;;;;9.02;5.68;;;;;;;-0.41;100.00;93826.72;10486926;28;20135;-80
2021/03/21 20:40:59;;;;;;;7.97;5.07;;;;;;;-0.42;100.00;93839.13;10452800;28;20017;-79
2021/03/21 20:46:00;;;;;;;10.30;4.72;;;;;;;-0.42;100.00;93828.56;10462906;28;20816;-79
2021/03/21 20:51:02;;;;;;;10.30;6.53;;;;;;;-0.34;100.00;93803.66;10489220;28;20048;-77
2021/03/21 20:56:04;;;;;;;15.63;8.18;;;;;;;-0.37;100.00;93809.41;10489254;28;20024;-78
2021/03/21 21:01:05;;;;;;;10.82;5.38;;;;;;;-0.36;100.00;93800.44;10485933;28;20399;-79
2021/03/21 21:06:06;;;;;;;8.82;5.30;;;;;;;-0.43;100.00;93795.28;10453645;28;20017;-78
2021/03/21 21:11:07;;;;;;;9.68;5.75;;;;;;;-0.36;100.00;93787.25;10461350;28;20021;-79
2021/03/21 21:16:08;;;;;;;10.13;5.43;;;;;;;-0.34;100.00;93777.25;10488337;28;20028;-79
2021/03/21 21:21:10;;;;;;;10.48;6.15;;;;;;;-0.38;100.00;93773.47;10490163;28;20071;-79
2021/03/21 21:26:12;;;;;;;13.18;5.78;;;;;;;-0.39;100.00;93756.00;10490997;28;20043;-79
2021/03/21 21:31:18;;;;;;;11.23;5.63;;;;;;;-0.42;100.00;93765.22;10502775;28;20419;-79
2021/03/21 21:36:20;;;;;;;11.75;6.68;;;;;;;-0.39;100.00;93732.25;10491222;28;20097;-79
2021/03/21 21:41:20;;;;;;;8.70;5.63;;;;;;;-0.43;100.00;93729.28;10493414;28;20032;-77
2021/03/21 21:46:23;;;;;;;11.23;6.50;;;;;;;-0.35;100.00;93717.56;10492054;28;20032;-81
2021/03/21 21:51:24;;;;;;;12.23;6.55;;;;;;;-0.27;100.00;93713.78;10494349;28;20113;-80
2021/03/21 21:56:25;;;;;;;12.15;6.22;;;;;;;-0.29;100.00;93706.09;10494645;28;20108;-81
2021/03/21 22:01:26;;;;;;;13.38;6.28;;;;;;;-0.27;100.00;93688.16;10493803;28;20025;-81
2021/03/21 22:06:27;;;;;;;13.00;6.43;;;;;;;-0.34;100.00;93674.28;10492727;28;20028;-82
2021/03/21 22:11:27;;;;;;;11.10;7.13;;;;;;;-0.31;100.00;93675.66;10487498;28;20259;-84
2021/03/21 22:16:28;;;;;;;11.73;5.93;;;;;;;-0.32;100.00;93679.34;10465192;28;20067;-84
2021/03/21 22:21:30;;;;;;;12.70;6.35;;;;;;;-0.20;100.00;93666.94;10451305;28;20898;-84
2021/03/21 22:26:30;;;;;;;10.90;6.68;;;;;;;-0.30;100.00;93645.59;10452647;28;20021;-84
2021/03/21 22:31:31;;;;;;;12.53;6.70;;;;;;;-0.28;100.00;93662.00;10452241;28;20036;-84
2021/03/21 22:36:45;;;;;;;14.13;7.55;;;;;;;-0.27;100.00;93655.69;10452294;28;20798;-84
2021/03/21 22:41:46;;;;;;;13.15;7.32;;;;;;;-0.23;100.00;93648.91;10450727;28;20052;-83
2021/03/21 22:46:46;;;;;;;8.30;5.63;;;;;;;-0.35;100.00;93639.19;10450752;28;20510;-82
2021/03/21 22:51:47;;;;;;;14.40;5.93;;;;;;;-0.34;100.00;93642.63;10450649;28;20094;-81
2021/03/21 22:56:47;;;;;;;9.33;5.83;;;;;;;-0.23;100.00;93636.50;10444739;28;20029;-81
2021/03/21 23:01:47;;;;;;;10.17;4.87;;;;;;;-0.23;100.00;93641.78;10439480;28;20326;-83
2021/03/21 23:06:48;;;;;;;9.90;5.80;;;;;;;-0.28;100.00;93639.06;10453324;28;20788;-83
2021/03/21 23:11:48;;;;;;;9.43;4.70;;;;;;;-0.23;100.00;93641.78;10457310;28;20028;-82
2021/03/21 23:16:49;;;;;;;6.77;4.07;;;;;;;-0.31;100.00;93636.88;10459502;28;21044;-82
2021/03/21 23:21:50;;;;;;;8.00;4.75;;;;;;;-0.29;100.00;93626.88;10450034;28;20736;-82
2021/03/21 23:26:51;;;;;;;8.07;4.47;;;;;;;-0.38;100.00;93617.72;10454300;28;20033;-82
2021/03/21 23:31:51;;;;;;;8.88;5.03;;;;;;;-0.35;100.00;93611.97;10457196;28;20831;-82
2021/03/21 23:36:55;;;;;;;10.73;4.63;;;;;;;-0.31;100.00;93599.13;10457655;28;20039;-82